Time;durP1;ratioP1;P1;durP2;ratioP2;P2;SDS_P1;SDS_P2;PMS_P1;PMS_P2;Temp;Humidity;BMP_temperature;BMP_pressure;BME280_temperature;BME280_humidity;BME280_pressure;Samples;Min_cycle;Max_cycle;Signal;HPM_P1;HPM_P2
2021/01/07 00:00:41;;;;;;;48.80;18.70;;;0.30;99.90;;;;;;20960294;28;20051;-78
2021/01/07 00:10:43;;;;;;;;;;;0.30;99.90;;;;;;20979974;28;20043;-78
2021/01/07 00:20:44;;;;;;;51.80;19.57;;;0.40;99.90;;;;;;20979040;28;20495;-77
2021/01/07 00:30:45;;;;;;;;;;;0.40;99.90;;;;;;20954168;28;20029;-78
2021/01/07 00:40:45;;;;;;;51.83;17.73;;;0.30;99.90;;;;;;20918026;28;20003;-78
2021/01/07 00:50:47;;;;;;;;;;;0.40;99.90;;;;;;20936600;28;20079;-78
2021/01/07 01:00:48;;;;;;;37.67;17.37;;;0.40;99.90;;;;;;20906621;28;20007;-78
2021/01/07 01:10:49;;;;;;;52.05;19.45;;;0.30;99.90;;;;;;20948862;22;20063;-78
2021/01/07 01:20:49;;;;;;;;;;;0.30;99.90;;;;;;21053855;28;20024;-78
2021/01/07 01:30:50;;;;;;;50.50;18.63;;;0.40;99.90;;;;;;21090376;28;19907;-78
2021/01/07 01:40:51;;;;;;;;;;;0.40;99.90;;;;;;21102212;28;20028;-79
2021/01/07 01:50:53;;;;;;;48.05;18.60;;;0.40;99.90;;;;;;21087386;28;19912;-78
2021/01/07 02:00:53;;;;;;;51.45;19.65;;;0.40;99.90;;;;;;21067757;28;20036;-78
2021/01/07 02:10:56;;;;;;;48.78;19.10;;;0.50;99.90;;;;;;21063543;28;20020;-79
2021/01/07 02:21:01;;;;;;;52.95;19.88;;;0.40;99.90;;;;;;21062973;28;20024;-79
2021/01/07 02:31:02;;;;;;;54.28;19.20;;;0.50;99.90;;;;;;21027415;28;20226;-78
2021/01/07 02:41:03;;;;;;;;;;;0.50;99.90;;;;;;21022936;28;20063;-79
2021/01/07 02:51:04;;;;;;;51.65;20.42;;;0.40;99.90;;;;;;21019354;28;19923;-79
2021/01/07 03:01:04;;;;;;;57.10;18.77;;;0.40;99.90;;;;;;21028841;28;20474;-79
2021/01/07 03:11:05;;;;;;;56.08;20.27;;;0.40;99.90;;;;;;21104481;28;20032;-79
2021/01/07 03:21:06;;;;;;;60.20;19.98;;;0.50;99.90;;;;;;21104658;28;20028;-79
2021/01/07 03:31:07;;;;;;;63.33;22.17;;;0.40;99.90;;;;;;21101854;28;20035;-78
2021/01/07 03:41:08;;;;;;;61.40;22.35;;;0.40;99.90;;;;;;21101801;28;20024;-79
2021/01/07 03:51:09;;;;;;;69.40;22.65;;;0.30;99.90;;;;;;21103745;28;20039;-79
2021/01/07 04:01:10;;;;;;;63.63;21.95;;;0.20;99.90;;;;;;21090645;28;20067;-78
2021/01/07 04:11:11;;;;;;;60.80;23.00;;;0.20;99.90;;;;;;21043464;28;20033;-79
2021/01/07 04:21:11;;;;;;;65.63;23.80;;;0.20;99.90;;;;;;21057363;28;20024;-79
2021/01/07 04:31:12;;;;;;;87.07;25.35;;;0.10;99.90;;;;;;21064870;28;20033;-79
2021/01/07 04:41:13;;;;;;;77.10;26.17;;;0.10;99.90;;;;;;21061571;28;20580;-79
2021/01/07 04:51:14;;;;;;;84.63;27.13;;;0.10;99.90;;;;;;21094852;28;20095;-79
2021/01/07 05:01:15;;;;;;;88.03;27.55;;;0.10;99.90;;;;;;21033298;28;20078;-79
2021/01/07 05:11:16;;;;;;;81.60;27.70;;;0.10;99.90;;;;;;21021260;28;20033;-79
2021/01/07 05:21:17;;;;;;;81.18;26.77;;;0.10;99.90;;;;;;21037064;28;20040;-77
2021/01/07 05:31:19;;;;;;;93.90;27.60;;;0.10;99.90;;;;;;21084655;28;20142;-77
2021/01/07 05:41:21;;;;;;;78.32;26.25;;;0.10;99.90;;;;;;21083512;28;20036;-77
2021/01/07 05:51:25;;;;;;;84.93;27.42;;;0.10;99.90;;;;;;21081279;28;20051;-77
2021/01/07 06:01:26;;;;;;;85.88;26.95;;;0.10;99.90;;;;;;21079343;28;20055;-77
2021/01/07 06:11:26;;;;;;;85.13;27.70;;;0.00;99.90;;;;;;21078948;28;20111;-77
2021/01/07 06:21:29;;;;;;;100.80;27.83;;;0.00;99.90;;;;;;21047428;28;20035;-78
2021/01/07 06:31:35;;;;;;;98.72;25.90;;;0.00;99.90;;;;;;21023830;28;20565;-78
2021/01/07 06:41:36;;;;;;;98.40;28.63;;;0.00;99.90;;;;;;21052633;28;20033;-78
2021/01/07 06:51:38;;;;;;;106.90;28.65;;;0.00;99.90;;;;;;21018422;28;20029;-79
2021/01/07 07:01:54;;;;;;;92.10;25.73;;;0.10;99.90;;;;;;21018890;28;20490;-78
2021/01/07 07:11:56;;;;;;;88.40;26.48;;;0.10;99.90;;;;;;21016962;28;20036;-77
2021/01/07 07:22:00;;;;;;;82.68;25.25;;;0.10;99.90;;;;;;21039646;28;20033;-78
2021/01/07 07:32:19;;;;;;;79.20;25.40;;;0.10;99.90;;;;;;21085859;28;20039;-79
2021/01/07 07:42:20;;;;;;;71.45;24.23;;;0.20;99.90;;;;;;21087046;28;20085;-80
2021/01/07 07:52:22;;;;;;;67.60;22.30;;;0.20;99.90;;;;;;21086675;28;20047;-80
2021/01/07 08:02:23;;;;;;;62.72;23.02;;;0.20;99.90;;;;;;21085809;28;20501;-81
2021/01/07 08:12:24;;;;;;;64.45;22.95;;;0.30;99.90;;;;;;21054290;28;20028;-80
2021/01/07 08:22:29;;;;;;;74.38;24.83;;;0.50;99.90;;;;;;21059465;28;20382;-79
2021/01/07 08:32:39;;;;;;;67.35;23.35;;;0.50;99.90;;;;;;21049082;28;20115;-81
2021/01/07 08:42:40;;;;;;;66.15;22.63;;;0.60;99.90;;;;;;21035278;28;20055;-81
2021/01/07 08:52:56;;;;;;;59.28;23.63;;;0.80;99.90;;;;;;21076681;28;20040;-77
2021/01/07 09:03:01;;;;;;;64.00;23.65;;;0.80;99.90;;;;;;21086030;28;20088;-80
2021/01/07 09:13:20;;;;;;;71.22;23.17;;;1.10;99.90;;;;;;21080314;28;20058;-78
2021/01/07 09:23:21;;;;;;;58.85;22.10;;;1.20;99.90;;;;;;21075076;28;20114;-80
2021/01/07 09:33:24;;;;;;;;;;;1.60;99.90;;;;;;21068679;28;20039;-80
2021/01/07 09:43:24;;;;;;;53.05;19.92;;;1.90;99.90;;;;;;21072984;28;19998;-80
2021/01/07 09:53:25;;;;;;;;;;;1.80;99.90;;;;;;20989842;28;20178;-79
2021/01/07 10:03:26;;;;;;;54.05;20.88;;;2.00;99.90;;;;;;21101149;27;19918;-79
2021/01/07 10:13:27;;;;;;;41.87;16.63;;;1.90;99.90;;;;;;21037392;28;20028;-78
2021/01/07 10:23:29;;;;;;;40.87;15.93;;;3.20;99.90;;;;;;21027923;28;20054;-78
2021/01/07 10:33:33;;;;;;;41.42;16.15;;;3.60;99.90;;;;;;21019186;28;20040;-78
2021/01/07 10:43:35;;;;;;;37.72;16.02;;;4.00;99.90;;;;;;21020734;28;20374;-78
2021/01/07 10:54:08;;;;;;;35.97;15.02;;;4.20;99.90;;;;;;21028089;28;20032;-78
2021/01/07 11:04:30;;;;;;;37.20;15.02;;;5.10;99.90;;;;;;21060914;28;20040;-78
2021/01/07 11:14:47;;;;;;;35.08;14.52;;;3.10;99.90;;;;;;21085609;28;20036;-77
2021/01/07 11:24:51;;;;;;;35.30;15.98;;;3.00;99.90;;;;;;21072471;28;20028;-77
2021/01/07 11:34:52;;;;;;;33.53;14.15;;;2.80;99.90;;;;;;21023516;28;20039;-77
2021/01/07 11:45:05;;;;;;;33.67;14.18;;;2.60;99.90;;;;;;21029026;28;20087;-78
2021/01/07 11:55:10;;;;;;;40.25;15.38;;;2.30;99.90;;;;;;21043334;28;20031;-78
2021/01/07 12:05:17;;;;;;;39.25;15.93;;;2.20;99.90;;;;;;21065451;28;20068;-78
2021/01/07 12:15:20;;;;;;;44.42;16.17;;;2.20;99.90;;;;;;21024522;28;20060;-78
2021/01/07 12:25:21;;;;;;;33.08;13.50;;;2.10;99.90;;;;;;21041893;28;20024;-77
2021/01/07 12:35:31;;;;;;;35.80;13.75;;;2.40;99.90;;;;;;21020246;28;20028;-77
2021/01/07 12:45:34;;;;;;;32.67;14.20;;;2.50;99.90;;;;;;21024942;28;20040;-77
2021/01/07 12:55:35;;;;;;;32.55;14.45;;;2.60;99.90;;;;;;21016384;28;20025;-77
2021/01/07 13:05:38;;;;;;;34.05;13.63;;;2.70;99.90;;;;;;21044869;28;20127;-75
2021/01/07 13:15:42;;;;;;;23.35;10.85;;;2.60;99.90;;;;;;21083620;28;20415;-75
2021/01/07 13:25:43;;;;;;;24.30;11.52;;;2.50;99.90;;;;;;20997616;28;20059;-76
2021/01/07 13:35:44;;;;;;;;;;;2.40;99.90;;;;;;21000054;28;20037;-76
2021/01/07 13:45:50;;;;;;;24.40;11.07;;;2.40;99.90;;;;;;20999376;28;19915;-76
2021/01/07 13:55:51;;;;;;;19.58;8.95;;;2.40;99.90;;;;;;21016673;28;20364;-75
2021/01/07 14:05:57;;;;;;;21.40;9.88;;;2.50;99.90;;;;;;21055149;28;20083;-77
2021/01/07 14:15:59;;;;;;;23.85;10.43;;;2.30;99.90;;;;;;20997314;28;20033;-78
2021/01/07 14:26:05;;;;;;;28.98;11.55;;;2.30;99.90;;;;;;20996335;28;20111;-77
2021/01/07 14:36:10;;;;;;;27.05;12.18;;;2.20;99.90;;;;;;21005818;28;20024;-76
2021/01/07 14:46:15;;;;;;;28.27;10.80;;;2.20;99.90;;;;;;21067215;28;20110;-77
2021/01/07 14:56:20;;;;;;;23.13;11.80;;;2.10;99.90;;;;;;21006248;28;20119;-77
2021/01/07 15:06:30;;;;;;;27.77;12.23;;;2.10;99.90;;;;;;21033523;28;20123;-77
2021/01/07 15:16:43;;;;;;;23.30;9.20;;;2.00;99.90;;;;;;20983346;28;20049;-76
2021/01/07 15:26:46;;;;;;;27.67;13.23;;;1.80;99.90;;;;;;21050457;28;20516;-76
2021/01/07 15:37:02;;;;;;;28.30;12.00;;;1.70;99.90;;;;;;21077173;28;20070;-76
2021/01/07 15:47:12;;;;;;;27.02;11.77;;;1.60;99.90;;;;;;21057934;28;20479;-77
2021/01/07 15:57:33;;;;;;;28.88;13.23;;;1.50;99.90;;;;;;21074487;28;20064;-78
2021/01/07 16:07:37;;;;;;;33.07;13.70;;;1.40;99.90;;;;;;21027761;28;20020;-80
2021/01/07 16:17:38;;;;;;;28.38;13.00;;;1.40;99.90;;;;;;20988673;28;20040;-78
2021/01/07 16:27:44;;;;;;;30.05;13.85;;;1.30;99.90;;;;;;21075920;28;20085;-77
2021/01/07 16:37:46;;;;;;;29.98;12.80;;;1.30;99.90;;;;;;21087092;28;20059;-80
2021/01/07 16:47:47;;;;;;;34.47;14.63;;;1.30;99.90;;;;;;21085696;28;20057;-77
2021/01/07 16:57:49;;;;;;;;;;;1.30;99.90;;;;;;21085654;28;20103;-77
2021/01/07 17:07:50;;;;;;;;;;;1.10;99.90;;;;;;21086911;28;19916;-76
2021/01/07 17:17:51;;;;;;;45.25;15.73;;;1.10;99.90;;;;;;21111824;28;20089;-78
2021/01/07 17:27:52;;;;;;;38.60;16.33;;;1.10;99.90;;;;;;21091063;28;20024;-77
2021/01/07 17:37:52;;;;;;;;;;;1.00;99.90;;;;;;21090151;28;20099;-77
2021/01/07 17:47:53;;;;;;;42.72;16.38;;;1.00;99.90;;;;;;21074074;28;20015;-77
2021/01/07 17:57:54;;;;;;;41.90;17.17;;;0.90;99.90;;;;;;21010422;28;20036;-77
2021/01/07 18:07:55;;;;;;;44.15;17.92;;;0.90;99.90;;;;;;21067514;28;20058;-78
2021/01/07 18:17:55;;;;;;;43.33;17.73;;;0.80;99.90;;;;;;21045221;28;20400;-77
2021/01/07 18:27:56;;;;;;;42.38;17.73;;;0.80;99.90;;;;;;21032568;28;20035;-77
2021/01/07 18:37:57;;;;;;;41.67;17.52;;;0.80;99.90;;;;;;20994824;28;20029;-78
2021/01/07 18:47:58;;;;;;;43.83;17.73;;;0.90;99.90;;;;;;21063511;28;20039;-78
2021/01/07 18:57:59;;;;;;;58.40;23.80;;;0.90;99.90;;;;;;21075087;28;20024;-76
2021/01/07 19:08:00;;;;;;;46.75;17.83;;;0.80;99.90;;;;;;21057169;28;20025;-76
2021/01/07 19:18:01;;;;;;;50.60;18.88;;;0.80;99.90;;;;;;21037604;28;20028;-77
2021/01/07 19:28:02;;;;;;;57.20;20.55;;;0.70;99.90;;;;;;21025786;28;20036;-78
2021/01/07 19:38:03;;;;;;;49.47;19.25;;;0.70;99.90;;;;;;21044546;28;20028;-79
2021/01/07 19:48:04;;;;;;;43.63;17.85;;;0.80;99.90;;;;;;21082476;28;20036;-79
2021/01/07 19:58:08;;;;;;;49.30;19.00;;;0.70;99.90;;;;;;21071774;28;20570;-78
2021/01/07 20:08:08;;;;;;;43.47;18.90;;;0.70;99.90;;;;;;21068847;28;20048;-79
2021/01/07 20:18:10;;;;;;;44.53;19.35;;;0.70;99.90;;;;;;21081190;28;20047;-79
2021/01/07 20:28:11;;;;;;;55.33;20.38;;;0.70;99.90;;;;;;21040557;28;20033;-79
2021/01/07 20:38:15;;;;;;;55.30;20.10;;;0.70;99.90;;;;;;21024961;28;20032;-79
2021/01/07 20:48:16;;;;;;;46.92;19.35;;;0.70;99.90;;;;;;21030708;28;20027;-79
2021/01/07 20:58:17;;;;;;;50.42;19.40;;;0.60;99.90;;;;;;21054396;28;20028;-78
2021/01/07 21:08:18;;;;;;;54.03;20.50;;;0.60;99.90;;;;;;21042094;28;20040;-78
2021/01/07 21:18:19;;;;;;;54.85;20.90;;;0.60;99.90;;;;;;21002803;28;20660;-78
2021/01/07 21:28:20;;;;;;;55.85;21.17;;;0.60;99.90;;;;;;21074301;28;20487;-78
2021/01/07 21:38:21;;;;;;;64.00;22.15;;;0.60;99.90;;;;;;21086661;28;20480;-78
2021/01/07 21:48:21;;;;;;;50.38;20.02;;;0.60;99.90;;;;;;21087606;28;20032;-78
2021/01/07 21:58:22;;;;;;;47.78;19.00;;;0.60;99.90;;;;;;21047719;28;20123;-79
2021/01/07 22:08:23;;;;;;;53.25;19.50;;;0.60;99.90;;;;;;21044921;28;20679;-78
2021/01/07 22:18:24;;;;;;;55.38;19.52;;;0.60;99.90;;;;;;21065211;28;20402;-79
2021/01/07 22:28:27;;;;;;;52.70;20.35;;;0.60;99.90;;;;;;21065301;28;20065;-78
2021/01/07 22:38:28;;;;;;;53.17;21.15;;;0.50;99.90;;;;;;20994461;28;20040;-78
2021/01/07 22:48:29;;;;;;;53.72;21.05;;;0.50;99.90;;;;;;20977096;28;20036;-77
2021/01/07 22:58:31;;;;;;;59.38;21.27;;;0.50;99.90;;;;;;21035922;28;20047;-77
2021/01/07 23:08:32;;;;;;;56.60;23.48;;;0.50;99.90;;;;;;21086267;28;20059;-77
2021/01/07 23:18:33;;;;;;;61.50;21.60;;;0.40;99.90;;;;;;21070872;28;20088;-77
2021/01/07 23:28:34;;;;;;;63.50;23.65;;;0.40;99.90;;;;;;21014418;28;20148;-77
2021/01/07 23:38:35;;;;;;;67.13;24.42;;;0.40;99.90;;;;;;21011442;28;20032;-78
2021/01/07 23:48:39;;;;;;;62.97;21.75;;;0.40;99.90;;;;;;20990886;28;20041;-77
2021/01/07 23:58:41;;;;;;;62.25;21.48;;;0.40;99.90;;;;;;20989814;28;20044;-78
